createdAt,value
2023-04-18T00:01:27.348Z,100700.84
2023-04-18T00:03:54.868Z,100697.06
2023-04-18T00:06:22.977Z,100706.31
2023-04-18T00:08:50.535Z,100696.66
2023-04-18T00:11:18.299Z,100694.00
2023-04-18T00:13:47.640Z,100690.28
2023-04-18T00:16:15.292Z,100692.78
2023-04-18T00:18:43.329Z,100691.16
2023-04-18T00:21:11.676Z,100692.78
2023-04-18T00:23:40.094Z,100698.44
2023-04-18T00:26:07.964Z,100700.25
2023-04-18T00:28:35.620Z,100685.75
2023-04-18T00:31:04.068Z,100680.31
2023-04-18T00:33:34.740Z,100673.84
2023-04-18T00:36:02.409Z,100672.03
2023-04-18T00:38:30.063Z,100676.47
2023-04-18T00:40:58.028Z,100680.06
2023-04-18T00:43:25.791Z,100672.00
2023-04-18T00:45:53.704Z,100674.22
2023-04-18T00:48:21.674Z,100679.97
2023-04-18T00:50:49.799Z,100684.69
2023-04-18T00:53:17.711Z,100676.00
2023-04-18T00:55:45.537Z,100676.09
2023-04-18T00:58:13.205Z,100683.25
2023-04-18T01:00:43.106Z,100685.44
2023-04-18T01:03:15.016Z,100674.56
2023-04-18T01:05:42.834Z,100681.59
2023-04-18T01:08:11.218Z,100680.00
2023-04-18T01:10:38.865Z,100677.28
2023-04-18T01:13:17.396Z,100680.22
2023-04-18T01:15:47.736Z,100673.38
2023-04-18T01:18:17.340Z,100679.03
2023-04-18T01:20:51.626Z,100673.22
2023-04-18T01:23:21.849Z,100672.09
2023-04-18T01:25:49.734Z,100669.38
2023-04-18T01:28:21.885Z,100674.00
2023-04-18T01:30:49.855Z,100679.75
2023-04-18T01:33:17.528Z,100678.44
2023-04-18T01:35:47.887Z,100679.03
2023-04-18T01:38:15.814Z,100684.53
2023-04-18T01:40:43.891Z,100671.53
2023-04-18T01:43:11.944Z,100681.59
2023-04-18T01:45:39.605Z,100673.19
2023-04-18T01:48:09.629Z,100679.91
2023-04-18T01:50:37.489Z,100667.94
2023-04-18T01:53:05.260Z,100673.38
2023-04-18T01:55:33.119Z,100675.00
2023-04-18T01:58:00.686Z,100669.88
2023-04-18T02:00:28.687Z,100672.06
2023-04-18T02:02:58.765Z,100670.72
2023-04-18T02:05:27.773Z,100659.88
2023-04-18T02:07:55.425Z,100662.09
2023-04-18T02:10:23.592Z,100658.63
2023-04-18T02:12:51.458Z,100661.44
2023-04-18T02:15:19.438Z,100662.84
2023-04-18T02:17:47.202Z,100662.91
2023-04-18T02:20:16.291Z,100664.13
2023-04-18T02:22:44.565Z,100661.31
2023-04-18T02:25:12.343Z,100661.13
2023-04-18T02:27:40.401Z,100665.50
2023-04-18T02:30:08.269Z,100669.03
2023-04-18T02:32:36.551Z,100665.72
2023-04-18T02:35:04.532Z,100666.84
2023-04-18T02:37:32.176Z,100670.16
2023-04-18T02:39:59.933Z,100671.06
2023-04-18T02:42:31.185Z,100679.63
2023-04-18T02:44:58.847Z,100686.19
2023-04-18T02:47:27.154Z,100683.75
2023-04-18T02:49:54.982Z,100686.75
2023-04-18T02:52:23.051Z,100686.44
2023-04-18T02:54:50.815Z,100685.88
2023-04-18T02:57:23.803Z,100685.28
2023-04-18T03:00:14.219Z,100685.28
2023-04-18T03:03:00.891Z,100692.09
2023-04-18T03:05:41.574Z,100678.63
2023-04-18T03:08:09.541Z,100682.41
2023-04-18T03:10:39.247Z,100685.44
2023-04-18T03:13:07.640Z,100700.44
2023-04-18T03:15:38.302Z,100685.03
2023-04-18T03:18:10.219Z,100688.59
2023-04-18T03:20:41.260Z,100694.34
2023-04-18T03:23:09.493Z,100692.22
2023-04-18T03:25:36.888Z,100697.13
2023-04-18T03:28:05.984Z,100696.06
2023-04-18T03:30:35.188Z,100693.84
2023-04-18T03:33:05.709Z,100700.91
2023-04-18T03:35:34.193Z,100696.09
2023-04-18T03:38:01.858Z,100705.88
2023-04-18T03:40:34.431Z,100704.25
2023-04-18T03:43:08.748Z,100703.47
2023-04-18T03:45:37.436Z,100699.69
2023-04-18T03:48:06.540Z,100701.91
2023-04-18T03:50:38.181Z,100710.66
2023-04-18T03:53:09.839Z,100701.97
2023-04-18T03:55:40.066Z,100708.00
2023-04-18T03:58:09.565Z,100707.78
2023-04-18T04:00:37.544Z,100699.72
2023-04-18T04:03:09.284Z,100704.88
2023-04-18T04:05:37.466Z,100713.53
2023-04-18T04:08:05.839Z,100721.97
2023-04-18T04:10:48.251Z,100713.53
2023-04-18T04:13:16.631Z,100707.31
2023-04-18T04:15:44.801Z,100713.22
2023-04-18T04:18:13.083Z,100725.72
2023-04-18T04:20:44.530Z,100729.84
2023-04-18T04:23:16.705Z,100732.34
2023-04-18T04:25:46.816Z,100736.66
2023-04-18T04:28:33.114Z,100740.72
2023-04-18T04:31:07.332Z,100748.50
2023-04-18T04:33:36.525Z,100751.44
2023-04-18T04:36:09.311Z,100751.66
2023-04-18T04:38:41.058Z,100759.69
2023-04-18T04:41:09.644Z,100745.78
2023-04-18T04:43:38.550Z,100758.22
2023-04-18T04:46:08.010Z,100760.22
2023-04-18T04:48:35.608Z,100753.41
2023-04-18T04:51:05.821Z,100764.72
2023-04-18T04:53:33.683Z,100759.56
2023-04-18T04:56:05.152Z,100766.81
2023-04-18T04:58:34.437Z,100771.47
2023-04-18T05:01:11.221Z,100767.28
2023-04-18T05:03:40.120Z,100769.56
2023-04-18T05:06:08.068Z,100777.97
2023-04-18T05:08:35.628Z,100784.28
2023-04-18T05:11:04.514Z,100787.72
2023-04-18T05:13:32.290Z,100788.78
2023-04-18T05:16:00.170Z,100797.53
2023-04-18T05:18:27.706Z,100792.63
2023-04-18T05:20:56.391Z,100800.69
2023-04-18T05:23:23.862Z,100812.19
2023-04-18T05:25:51.809Z,100810.16
2023-04-18T05:28:19.169Z,100814.13
2023-04-18T05:30:47.465Z,100810.72
2023-04-18T05:33:15.419Z,100812.19
2023-04-18T05:35:43.584Z,100817.75
2023-04-18T05:38:11.151Z,100819.94
2023-04-18T05:40:45.569Z,100818.81
2023-04-18T05:43:13.229Z,100820.78
2023-04-18T05:45:41.406Z,100822.69
2023-04-18T05:48:08.861Z,100824.44
2023-04-18T05:50:37.752Z,100821.53
2023-04-18T05:53:05.723Z,100829.28
2023-04-18T05:55:34.815Z,100825.25
2023-04-18T05:58:03.184Z,100835.63
2023-04-18T06:00:31.053Z,100835.84
2023-04-18T06:02:58.899Z,100829.00
2023-04-18T06:05:26.894Z,100835.25
2023-04-18T06:07:54.960Z,100823.47
2023-04-18T06:10:23.131Z,100831.03
2023-04-18T06:12:50.999Z,100829.56
2023-04-18T06:15:18.868Z,100820.88
2023-04-18T06:17:46.682Z,100828.88
2023-04-18T06:20:14.391Z,100827.13
2023-04-18T06:22:42.162Z,100826.72
2023-04-18T06:25:10.341Z,100825.41
2023-04-18T06:27:38.927Z,100825.88
2023-04-18T06:30:08.416Z,100828.38
2023-04-18T06:32:36.532Z,100833.53
2023-04-18T06:35:05.482Z,100828.75
2023-04-18T06:37:33.549Z,100830.56
2023-04-18T06:40:01.330Z,100841.06
2023-04-18T06:42:29.080Z,100829.47
2023-04-18T06:44:57.051Z,100838.06
2023-04-18T06:47:25.075Z,100839.94
2023-04-18T06:49:53.191Z,100841.59
2023-04-18T06:52:20.957Z,100846.81
2023-04-18T06:54:48.523Z,100846.47
2023-04-18T06:57:16.793Z,100843.09
2023-04-18T06:59:44.677Z,100852.69
2023-04-18T07:02:12.774Z,100852.88
2023-04-18T07:04:41.436Z,100857.06
2023-04-18T07:07:09.272Z,100856.72
2023-04-18T07:09:36.948Z,100855.53
2023-04-18T07:12:04.809Z,100858.28
2023-04-18T07:14:34.094Z,100853.53
2023-04-18T07:17:02.338Z,100871.69
2023-04-18T07:19:30.138Z,100859.91
2023-04-18T07:21:57.807Z,100869.16
2023-04-18T07:24:25.664Z,100878.81
2023-04-18T07:26:55.058Z,100860.81
2023-04-18T07:29:23.137Z,100876.28
2023-04-18T07:31:50.805Z,100867.16
2023-04-18T07:34:18.260Z,100869.09
2023-04-18T07:36:45.917Z,100874.41
2023-04-18T07:39:13.922Z,100870.88
2023-04-18T07:41:41.756Z,100871.22
2023-04-18T07:44:09.426Z,100874.50
2023-04-18T07:46:37.102Z,100872.66
2023-04-18T07:49:05.151Z,100873.75
2023-04-18T07:51:33.125Z,100882.09
2023-04-18T07:54:01.610Z,100889.56
2023-04-18T07:56:29.565Z,100905.78
2023-04-18T07:58:57.125Z,100899.72
2023-04-18T08:01:27.454Z,100892.88
2023-04-18T08:03:56.793Z,100905.66
2023-04-18T08:06:24.102Z,100907.28
2023-04-18T08:08:51.385Z,100906.38
2023-04-18T08:11:18.441Z,100909.13
2023-04-18T08:13:45.544Z,100916.00
2023-04-18T08:16:14.257Z,100928.03
2023-04-18T08:18:43.517Z,100930.78
2023-04-18T08:21:10.663Z,100935.31
2023-04-18T08:23:37.821Z,100936.19
2023-04-18T08:26:04.957Z,100929.03
2023-04-18T08:28:31.999Z,100937.22
2023-04-18T08:30:59.117Z,100941.25
2023-04-18T08:33:26.605Z,100931.50
2023-04-18T08:35:53.665Z,100941.16
2023-04-18T08:38:20.877Z,100933.22
2023-04-18T08:40:52.737Z,100940.97
2023-04-18T08:43:20.029Z,100935.91
2023-04-18T08:45:50.218Z,100941.56
2023-04-18T08:48:18.590Z,100935.19
2023-04-18T08:50:46.278Z,100947.53
2023-04-18T08:53:13.940Z,100950.84
2023-04-18T08:55:42.154Z,100947.72
2023-04-18T08:58:09.310Z,100949.00
2023-04-18T09:00:37.762Z,100945.72
2023-04-18T09:03:05.439Z,100944.91
2023-04-18T09:05:32.958Z,100951.47
2023-04-18T09:08:20.067Z,100948.41
2023-04-18T09:10:47.357Z,100951.09
2023-04-18T09:13:14.451Z,100952.63
2023-04-18T09:15:45.824Z,100953.41
2023-04-18T09:18:14.497Z,100951.13
2023-04-18T09:20:42.531Z,100954.44
2023-04-18T09:23:24.346Z,100949.97
2023-04-18T09:25:52.528Z,100957.09
2023-04-18T09:28:33.880Z,100953.88
2023-04-18T09:31:12.329Z,100957.56
2023-04-18T09:33:45.015Z,100955.97
2023-04-18T09:36:27.881Z,100958.72
2023-04-18T09:38:57.002Z,100956.66
2023-04-18T09:41:24.658Z,100959.41
2023-04-18T09:44:14.038Z,100957.22
2023-04-18T09:46:44.540Z,100960.88
2023-04-18T09:49:13.578Z,100956.75
2023-04-18T09:51:43.371Z,100961.41
2023-04-18T09:54:17.318Z,100962.78
2023-04-18T09:56:46.478Z,100953.44
2023-04-18T09:59:21.090Z,100954.47
2023-04-18T10:01:49.908Z,100956.97
2023-04-18T10:04:18.589Z,100956.69
2023-04-18T10:06:47.721Z,100957.41
2023-04-18T10:09:17.603Z,100957.53
2023-04-18T10:11:45.420Z,100952.84
2023-04-18T10:14:16.268Z,100959.31
2023-04-18T10:16:49.961Z,100944.56
2023-04-18T10:19:25.047Z,100941.94
2023-04-18T10:21:54.288Z,100942.28
2023-04-18T10:24:53.885Z,100938.97
2023-04-18T10:27:49.095Z,100946.44
2023-04-18T10:30:18.001Z,100940.19
2023-04-18T10:32:49.067Z,100936.44
2023-04-18T10:35:21.510Z,100934.13
2023-04-18T10:37:52.970Z,100934.75
2023-04-18T10:40:36.400Z,100923.03
2023-04-18T10:43:04.115Z,100927.06
2023-04-18T10:45:36.528Z,100921.19
2023-04-18T10:48:41.077Z,100927.69
2023-04-18T10:51:18.690Z,100924.81
2023-04-18T10:53:52.540Z,100922.56
2023-04-18T10:56:19.881Z,100930.72
2023-04-18T10:58:51.716Z,100923.38
2023-04-18T11:01:32.682Z,100919.13
2023-04-18T11:04:00.758Z,100922.88
2023-04-18T11:06:28.584Z,100916.81
2023-04-18T11:09:12.365Z,100916.59
2023-04-18T11:11:40.214Z,100920.66
2023-04-18T11:14:07.290Z,100922.72
2023-04-18T11:16:35.172Z,100930.25
2023-04-18T11:19:19.939Z,100920.16
2023-04-18T11:21:47.204Z,100913.97
2023-04-18T11:24:22.193Z,100917.06
2023-04-18T11:26:49.321Z,100920.28
2023-04-18T11:29:18.405Z,100926.00
2023-04-18T11:31:57.761Z,100922.00
2023-04-18T11:34:33.050Z,100936.44
2023-04-18T11:37:00.603Z,100935.25
2023-04-18T11:39:27.850Z,100939.19
2023-04-18T11:41:57.398Z,100928.31
2023-04-18T11:44:25.711Z,100932.69
2023-04-18T11:46:53.724Z,100924.47
2023-04-18T11:49:28.183Z,100926.59
2023-04-18T11:51:55.539Z,100932.59
2023-04-18T11:54:45.817Z,100941.56
2023-04-18T11:57:23.407Z,100937.94
2023-04-18T12:00:00.030Z,100940.69
2023-04-18T12:02:51.601Z,100943.00
2023-04-18T12:05:31.400Z,100950.31
2023-04-18T12:08:14.070Z,100942.91
2023-04-18T12:10:52.049Z,100942.09
2023-04-18T12:13:24.078Z,100931.66
2023-04-18T12:15:51.517Z,100932.59
2023-04-18T12:18:22.082Z,100940.38
2023-04-18T12:20:52.518Z,100943.31
2023-04-18T12:23:32.372Z,100952.25
2023-04-18T12:26:04.652Z,100945.84
2023-04-18T12:28:33.062Z,100943.66
2023-04-18T12:31:00.218Z,100950.34
2023-04-18T12:33:27.521Z,100948.66
2023-04-18T12:35:54.652Z,100953.66
2023-04-18T12:38:23.637Z,100948.59
2023-04-18T12:40:52.045Z,100958.44
2023-04-18T12:43:19.801Z,100954.34
2023-04-18T12:45:47.517Z,100965.31
2023-04-18T12:48:14.922Z,100975.56
2023-04-18T12:50:42.052Z,100964.44
2023-04-18T12:53:09.105Z,100971.09
2023-04-18T12:55:36.616Z,100975.03
2023-04-18T12:58:04.402Z,100971.31
2023-04-18T13:00:33.046Z,100958.59
2023-04-18T13:03:00.990Z,100961.81
2023-04-18T13:05:32.986Z,100960.50
2023-04-18T13:10:32.113Z,100971.66
2023-04-18T13:13:00.684Z,100982.19
2023-04-18T13:15:28.045Z,100984.50
2023-04-18T13:18:06.077Z,100980.31
2023-04-18T13:20:35.101Z,100983.78
2023-04-18T13:23:06.300Z,100991.06
2023-04-18T13:25:33.612Z,100992.97
2023-04-18T13:28:01.154Z,100988.09
2023-04-18T13:30:28.688Z,100979.59
2023-04-18T13:32:56.983Z,100973.72
2023-04-18T13:35:24.051Z,100938.88
2023-04-18T13:37:51.216Z,100919.41
2023-04-18T13:40:18.546Z,100916.31
2023-04-18T13:42:45.671Z,100944.63
2023-04-18T13:45:13.090Z,100961.22
2023-04-18T13:47:40.398Z,100964.00
2023-04-18T13:50:08.189Z,100961.28
2023-04-18T13:52:35.584Z,100958.38
2023-04-18T13:55:02.633Z,100965.44
2023-04-18T13:57:32.258Z,100979.13
2023-04-18T13:59:59.375Z,100977.81
2023-04-18T14:02:26.707Z,100991.66
2023-04-18T14:04:55.031Z,100998.28
2023-04-18T14:07:22.221Z,100993.59
2023-04-18T14:09:49.318Z,100988.44
2023-04-18T14:12:16.449Z,100967.84
2023-04-18T14:14:43.579Z,100961.06
2023-04-18T14:17:10.734Z,100963.34
2023-04-18T14:19:37.726Z,100975.25
2023-04-18T14:22:04.802Z,100964.13
2023-04-18T14:24:31.879Z,100962.03
2023-04-18T14:26:59.032Z,100967.19
2023-04-18T14:29:26.011Z,100966.38
2023-04-18T14:31:53.125Z,100966.22
2023-04-18T14:34:23.050Z,100967.84
2023-04-18T14:36:50.195Z,100967.88
2023-04-18T14:39:17.375Z,100964.66
2023-04-18T14:41:45.993Z,100988.03
2023-04-18T14:47:16.096Z,100987.38
2023-04-18T14:49:43.201Z,100990.44
2023-04-18T14:52:10.163Z,100984.16
2023-04-18T14:54:37.157Z,100979.34
2023-04-18T14:57:04.305Z,100985.94
2023-04-18T14:59:31.645Z,100983.88
2023-04-18T15:01:58.825Z,100996.75
2023-04-18T15:04:26.042Z,100997.06
2023-04-18T15:06:53.462Z,100997.81
2023-04-18T15:09:21.038Z,100994.88
2023-04-18T15:11:48.269Z,100994.28
2023-04-18T15:14:16.356Z,100999.59
2023-04-18T15:16:44.035Z,101010.72
2023-04-18T15:19:11.850Z,101012.19
2023-04-18T15:21:38.980Z,101013.44
2023-04-18T15:24:06.420Z,101012.31
2023-04-18T15:26:34.049Z,101010.41
2023-04-18T15:29:05.155Z,101012.38
2023-04-18T15:31:32.968Z,101010.41
2023-04-18T15:34:00.532Z,101004.19
2023-04-18T15:36:28.288Z,101000.16
2023-04-18T15:38:55.534Z,101002.09
2023-04-18T15:41:22.694Z,101008.53
2023-04-18T15:43:49.815Z,101006.41
2023-04-18T15:46:16.896Z,101001.84
2023-04-18T15:48:45.570Z,100995.84
2023-04-18T15:51:12.927Z,100988.22
2023-04-18T15:53:40.251Z,100998.75
2023-04-18T15:56:07.253Z,101005.94
2023-04-18T15:58:34.509Z,101015.41
2023-04-18T16:01:02.368Z,101009.38
2023-04-18T16:03:30.274Z,101009.78
2023-04-18T16:05:57.561Z,101003.72
2023-04-18T16:08:24.761Z,101013.22
2023-04-18T16:10:53.374Z,101015.13
2023-04-18T16:13:21.030Z,101022.88
2023-04-18T16:15:48.343Z,101018.97
2023-04-18T16:18:15.729Z,101027.53
2023-04-18T16:20:42.923Z,101029.63
2023-04-18T16:23:10.944Z,101024.63
2023-04-18T16:25:38.125Z,101028.50
2023-04-18T16:28:05.295Z,101018.97
2023-04-18T16:30:32.672Z,101024.13
2023-04-18T16:33:01.294Z,101023.53
2023-04-18T16:35:28.961Z,101025.13
2023-04-18T16:37:56.026Z,101037.72
2023-04-18T16:40:23.507Z,101037.06
2023-04-18T16:42:52.887Z,101039.03
2023-04-18T16:45:20.121Z,101035.53
2023-04-18T16:47:47.202Z,101038.34
2023-04-18T16:50:14.332Z,101041.75
2023-04-18T16:52:42.632Z,101035.13
2023-04-18T16:55:10.158Z,101042.50
2023-04-18T16:57:37.709Z,101035.41
2023-04-18T17:00:05.445Z,101032.19
2023-04-18T17:02:32.772Z,101030.75
2023-04-18T17:05:00.456Z,101027.69
2023-04-18T17:07:27.752Z,101019.00
2023-04-18T17:09:54.723Z,101028.34
2023-04-18T17:12:22.520Z,101026.25
2023-04-18T17:14:49.622Z,101033.03
2023-04-18T17:17:18.734Z,101030.75
2023-04-18T17:19:46.608Z,101032.19
2023-04-18T17:22:13.590Z,101025.44
2023-04-18T17:24:40.838Z,101023.66
2023-04-18T17:27:07.900Z,101027.03
2023-04-18T17:29:35.148Z,101032.50
2023-04-18T17:32:02.440Z,101026.06
2023-04-18T17:34:29.699Z,101016.38
2023-04-18T17:36:57.044Z,101023.97
2023-04-18T17:39:24.113Z,101020.91
2023-04-18T17:41:51.289Z,101026.38
2023-04-18T17:44:18.371Z,101031.69
2023-04-18T17:46:45.602Z,101030.72
2023-04-18T17:49:12.859Z,101030.56
2023-04-18T17:51:40.466Z,101048.41
2023-04-18T17:54:08.356Z,101039.69
2023-04-18T17:56:35.804Z,101040.84
2023-04-18T17:59:03.234Z,101048.88
2023-04-18T18:01:30.675Z,101048.38
2023-04-18T18:03:59.080Z,101047.25
2023-04-18T18:06:27.915Z,101046.78
2023-04-18T18:08:55.085Z,101051.91
2023-04-18T18:11:23.232Z,101051.75
2023-04-18T18:13:54.681Z,101059.97
2023-04-18T18:16:24.952Z,101075.09
2023-04-18T18:18:52.293Z,101071.69
2023-04-18T18:21:19.723Z,101076.84
2023-04-18T18:23:46.976Z,101079.19
2023-04-18T18:26:14.022Z,101079.53
2023-04-18T18:28:41.197Z,101072.75
2023-04-18T18:31:08.229Z,101072.91
2023-04-18T18:33:35.529Z,101078.19
2023-04-18T18:36:02.814Z,101073.63
2023-04-18T18:38:29.897Z,101081.84
2023-04-18T18:40:57.110Z,101090.50
2023-04-18T18:43:26.416Z,101086.47
2023-04-18T18:45:53.654Z,101087.41
2023-04-18T18:48:20.797Z,101090.56
2023-04-18T18:50:48.170Z,101096.97
2023-04-18T18:53:18.058Z,101092.41
2023-04-18T18:55:45.775Z,101085.47
2023-04-18T18:58:12.803Z,101091.88
2023-04-18T19:00:40.117Z,101098.25
2023-04-18T19:03:08.449Z,101089.56
2023-04-18T19:05:35.910Z,101093.22
2023-04-18T19:08:05.034Z,101090.00
2023-04-18T19:10:32.256Z,101087.91
2023-04-18T19:13:00.497Z,101099.63
2023-04-18T19:15:30.855Z,101098.03
2023-04-18T19:17:58.105Z,101089.94
2023-04-18T19:20:26.582Z,101092.47
2023-04-18T19:22:54.546Z,101099.38
2023-04-18T19:25:22.124Z,101104.16
2023-04-18T19:27:49.150Z,101107.50
2023-04-18T19:30:16.304Z,101104.88
2023-04-18T19:32:43.437Z,101112.28
2023-04-18T19:35:13.310Z,101105.28
2023-04-18T19:37:40.604Z,101115.72
2023-04-18T19:40:08.225Z,101116.63
2023-04-18T19:42:35.344Z,101118.06
2023-04-18T19:45:02.545Z,101128.19
2023-04-18T19:47:33.893Z,101127.06
2023-04-18T19:50:01.663Z,101133.66
2023-04-18T19:52:29.751Z,101141.53
2023-04-18T19:54:56.907Z,101134.63
2023-04-18T19:57:25.772Z,101134.34
2023-04-18T19:59:52.986Z,101129.50
2023-04-18T20:02:20.468Z,101129.50
2023-04-18T20:04:50.048Z,101129.50
2023-04-18T20:07:17.261Z,101130.09
2023-04-18T20:09:44.468Z,101139.91
2023-04-18T20:12:11.548Z,101134.63
2023-04-18T20:14:38.734Z,101139.19
2023-04-18T20:17:05.813Z,101133.41
2023-04-18T20:19:32.938Z,101139.50
2023-04-18T20:22:00.140Z,101139.00
2023-04-18T20:24:28.332Z,101141.75
2023-04-18T20:26:55.517Z,101138.22
2023-04-18T20:29:22.689Z,101145.88
2023-04-18T20:31:49.845Z,101141.53
2023-04-18T20:34:17.283Z,101138.81
2023-04-18T20:36:45.108Z,101142.63
2023-04-18T20:39:13.315Z,101144.38
2023-04-18T20:41:46.620Z,101150.44
2023-04-18T20:44:14.295Z,101147.31
2023-04-18T20:46:42.083Z,101149.03
2023-04-18T20:49:10.028Z,101152.88
2023-04-18T20:51:38.268Z,101162.69
2023-04-18T20:54:05.818Z,101162.78
2023-04-18T20:56:33.937Z,101156.31
2023-04-18T20:59:01.060Z,101151.78
2023-04-18T21:01:28.316Z,101161.19
2023-04-18T21:03:55.628Z,101156.53
2023-04-18T21:06:23.022Z,101157.94
2023-04-18T21:08:50.050Z,101161.78
2023-04-18T21:11:17.192Z,101155.53
2023-04-18T21:13:44.204Z,101156.09
2023-04-18T21:16:11.490Z,101157.78
2023-04-18T21:18:38.570Z,101169.81
2023-04-18T21:21:05.867Z,101159.50
2023-04-18T21:23:32.962Z,101161.75
2023-04-18T21:26:00.184Z,101162.84
2023-04-18T21:28:27.343Z,101163.66
2023-04-18T21:30:54.414Z,101167.81
2023-04-18T21:33:21.457Z,101163.66
2023-04-18T21:35:48.694Z,101159.31
2023-04-18T21:38:15.926Z,101161.31
2023-04-18T21:40:43.006Z,101164.34
2023-04-18T21:43:10.145Z,101163.56
2023-04-18T21:45:37.384Z,101165.47
2023-04-18T21:48:04.863Z,101165.16
2023-04-18T21:50:31.985Z,101163.34
2023-04-18T21:52:59.102Z,101163.13
2023-04-18T21:55:26.109Z,101172.94
2023-04-18T21:57:54.410Z,101163.34
2023-04-18T22:00:21.511Z,101157.09
2023-04-18T22:02:48.715Z,101159.38
2023-04-18T22:05:16.425Z,101169.47
2023-04-18T22:07:54.873Z,101164.81
2023-04-18T22:10:25.389Z,101163.22
2023-04-18T22:12:56.142Z,101169.78
2023-04-18T22:15:40.044Z,101164.41
2023-04-18T22:18:09.111Z,101179.16
2023-04-18T22:20:36.191Z,101165.31
2023-04-18T22:23:04.521Z,101172.19
2023-04-18T22:25:31.542Z,101173.97
2023-04-18T22:27:58.680Z,101176.41
2023-04-18T22:30:26.013Z,101182.16
2023-04-18T22:32:53.262Z,101181.13
2023-04-18T22:35:20.660Z,101173.53
2023-04-18T22:37:47.882Z,101180.41
2023-04-18T22:40:16.537Z,101178.41
2023-04-18T22:42:43.746Z,101179.81
2023-04-18T22:45:11.006Z,101179.59
2023-04-18T22:47:38.270Z,101176.97
2023-04-18T22:50:06.377Z,101175.09
2023-04-18T22:52:34.120Z,101182.09
2023-04-18T22:55:02.669Z,101177.19
2023-04-18T22:57:29.847Z,101181.50
2023-04-18T22:59:56.928Z,101184.75
2023-04-18T23:02:24.788Z,101182.84
2023-04-18T23:04:53.454Z,101185.03
2023-04-18T23:07:20.605Z,101188.28
2023-04-18T23:09:47.612Z,101188.09
2023-04-18T23:12:14.752Z,101184.03
2023-04-18T23:14:41.887Z,101180.78
2023-04-18T23:17:08.977Z,101181.00
2023-04-18T23:19:36.221Z,101185.94
2023-04-18T23:22:03.272Z,101184.91
2023-04-18T23:24:31.401Z,101181.75
2023-04-18T23:26:58.604Z,101181.53
2023-04-18T23:29:25.696Z,101183.16
2023-04-18T23:31:52.893Z,101177.63
2023-04-18T23:34:19.942Z,101177.34
2023-04-18T23:36:47.376Z,101170.25
2023-04-18T23:39:14.450Z,101169.97
2023-04-18T23:41:41.497Z,101171.25
2023-04-18T23:44:08.606Z,101169.44
2023-04-18T23:46:36.679Z,101167.53
2023-04-18T23:49:04.039Z,101161.25
2023-04-18T23:51:31.257Z,101146.63
2023-04-18T23:53:58.408Z,101160.75
2023-04-18T23:56:25.438Z,101161.78
2023-04-18T23:58:53.991Z,101169.28
